createdAt,value
2018-03-31T00:00:29.404Z,82.80
2018-03-31T00:02:55.580Z,82.20
2018-03-31T00:05:22.437Z,83.70
2018-03-31T00:07:49.260Z,85.30
2018-03-31T00:10:16.170Z,87.90
2018-03-31T00:12:42.300Z,87.90
2018-03-31T00:15:08.472Z,89.40
2018-03-31T00:17:35.303Z,90.00
2018-03-31T00:20:02.231Z,90.00
2018-03-31T00:22:28.330Z,90.00
2018-03-31T00:24:54.570Z,89.10
2018-03-31T00:27:20.725Z,86.90
2018-03-31T00:29:47.570Z,83.10
2018-03-31T00:32:13.693Z,83.80
2018-03-31T00:34:40.552Z,81.90
2018-03-31T00:37:06.683Z,81.90
2018-03-31T00:39:32.767Z,81.10
2018-03-31T00:41:58.875Z,80.70
2018-03-31T00:44:24.991Z,81.60
2018-03-31T00:46:51.170Z,80.50
2018-03-31T00:49:17.269Z,80.20
2018-03-31T00:51:44.157Z,80.40
2018-03-31T00:54:10.280Z,80.40
2018-03-31T00:56:36.498Z,80.00
2018-03-31T00:59:02.726Z,80.30
2018-03-31T01:01:28.890Z,80.90
2018-03-31T01:03:54.996Z,81.30
2018-03-31T01:06:21.181Z,79.90
2018-03-31T01:08:48.298Z,80.40
2018-03-31T01:11:14.406Z,80.40
2018-03-31T01:13:40.492Z,82.30
2018-03-31T01:16:06.678Z,81.80
2018-03-31T01:18:32.791Z,79.90
2018-03-31T01:20:58.946Z,80.60
2018-03-31T01:23:25.859Z,79.40
2018-03-31T01:25:51.978Z,79.30
2018-03-31T01:28:18.221Z,79.70
2018-03-31T01:30:44.313Z,80.70
2018-03-31T01:33:10.432Z,80.30
2018-03-31T01:35:36.562Z,82.10
2018-03-31T01:38:02.787Z,81.60
2018-03-31T01:40:28.910Z,81.60
2018-03-31T01:42:55.050Z,81.50
2018-03-31T01:45:21.160Z,83.10
2018-03-31T01:47:47.287Z,83.10
2018-03-31T01:50:13.361Z,83.30
2018-03-31T01:52:40.230Z,82.40
2018-03-31T01:55:06.393Z,82.40
2018-03-31T01:57:32.513Z,83.20
2018-03-31T01:59:58.689Z,82.70
2018-03-31T02:02:24.763Z,81.40
2018-03-31T02:04:50.858Z,81.60
2018-03-31T02:07:16.977Z,83.80
2018-03-31T02:09:43.112Z,84.20
2018-03-31T02:12:09.205Z,82.20
2018-03-31T02:14:35.416Z,81.50
2018-03-31T02:17:02.242Z,81.50
2018-03-31T02:19:28.399Z,81.40
2018-03-31T02:21:55.244Z,81.50
2018-03-31T02:24:21.400Z,81.50
2018-03-31T02:26:47.494Z,81.40
2018-03-31T02:29:13.678Z,81.40
2018-03-31T02:31:39.799Z,81.80
2018-03-31T02:34:05.999Z,81.60
2018-03-31T02:36:32.146Z,82.00
2018-03-31T02:38:58.272Z,81.40
2018-03-31T02:41:24.412Z,81.40
2018-03-31T02:43:50.530Z,81.40
2018-03-31T02:46:16.622Z,81.70
2018-03-31T02:48:42.753Z,81.30
2018-03-31T02:51:08.863Z,82.40
2018-03-31T02:53:34.944Z,81.60
2018-03-31T02:56:01.120Z,81.30
2018-03-31T02:58:27.221Z,81.10
2018-03-31T03:00:53.402Z,80.90
2018-03-31T03:03:19.583Z,80.90
2018-03-31T03:05:45.733Z,81.40
2018-03-31T03:08:11.930Z,81.70
2018-03-31T03:10:38.055Z,80.60
2018-03-31T03:13:04.191Z,80.10
2018-03-31T03:15:30.300Z,79.70
2018-03-31T03:17:56.430Z,80.00
2018-03-31T03:20:22.559Z,81.50
2018-03-31T03:22:48.709Z,81.00
2018-03-31T03:25:14.783Z,81.40
2018-03-31T03:27:40.862Z,81.40
2018-03-31T03:30:06.980Z,80.00
2018-03-31T03:32:33.063Z,81.40
2018-03-31T03:34:59.182Z,82.90
2018-03-31T03:37:25.295Z,81.40
2018-03-31T03:39:52.144Z,83.30
2018-03-31T03:42:18.289Z,83.30
2018-03-31T03:44:44.405Z,81.30
2018-03-31T03:47:10.565Z,81.40
2018-03-31T03:49:36.698Z,82.00
2018-03-31T03:52:02.806Z,81.30
2018-03-31T03:54:28.930Z,80.20
2018-03-31T03:56:55.046Z,80.80
2018-03-31T03:59:21.160Z,80.10
2018-03-31T04:01:47.249Z,79.90
2018-03-31T04:04:13.463Z,81.00
2018-03-31T04:06:39.605Z,81.50
2018-03-31T04:09:05.733Z,81.40
2018-03-31T04:11:31.866Z,81.80
2018-03-31T04:13:58.030Z,82.30
2018-03-31T04:16:24.244Z,83.20
2018-03-31T04:18:50.359Z,85.30
2018-03-31T04:21:16.504Z,86.40
2018-03-31T04:23:42.594Z,84.60
2018-03-31T04:26:08.685Z,85.00
2018-03-31T04:28:34.818Z,85.20
2018-03-31T04:31:01.641Z,84.30
2018-03-31T04:33:27.740Z,84.30
2018-03-31T04:35:53.816Z,84.40
2018-03-31T04:38:20.692Z,84.30
2018-03-31T04:40:46.778Z,84.20
2018-03-31T04:43:12.893Z,83.70
2018-03-31T04:45:38.993Z,83.30
2018-03-31T04:48:05.224Z,83.30
2018-03-31T04:50:31.378Z,84.20
2018-03-31T04:52:57.553Z,82.90
2018-03-31T04:55:23.771Z,84.30
2018-03-31T04:57:49.924Z,84.30
2018-03-31T05:00:16.094Z,84.80
2018-03-31T05:02:43.000Z,84.90
2018-03-31T05:05:09.132Z,84.90
2018-03-31T05:07:35.257Z,84.10
2018-03-31T05:10:01.381Z,84.00
2018-03-31T05:12:27.531Z,85.70
2018-03-31T05:14:53.729Z,84.10
2018-03-31T05:17:19.817Z,84.50
2018-03-31T05:19:45.897Z,84.20
2018-03-31T05:22:12.006Z,84.10
2018-03-31T05:24:38.128Z,83.90
2018-03-31T05:27:04.282Z,84.00
2018-03-31T05:29:30.390Z,83.90
2018-03-31T05:31:57.274Z,84.90
2018-03-31T05:34:23.492Z,84.90
2018-03-31T05:36:49.617Z,83.90
2018-03-31T05:39:15.826Z,82.70
2018-03-31T05:41:41.985Z,82.80
2018-03-31T05:44:08.189Z,81.80
2018-03-31T05:46:34.296Z,82.60
2018-03-31T05:49:01.159Z,84.70
2018-03-31T05:51:27.268Z,84.70
2018-03-31T05:53:53.411Z,86.20
2018-03-31T05:56:19.565Z,86.50
2018-03-31T05:58:46.494Z,86.20
2018-03-31T06:01:12.734Z,86.20
2018-03-31T06:03:38.911Z,86.80
2018-03-31T06:06:04.993Z,85.90
2018-03-31T06:08:31.070Z,86.50
2018-03-31T06:10:57.196Z,87.60
2018-03-31T06:13:23.327Z,87.30
2018-03-31T06:15:49.474Z,87.80
2018-03-31T06:18:15.610Z,87.00
2018-03-31T06:20:41.737Z,87.40
2018-03-31T06:23:08.363Z,87.70
2018-03-31T06:25:34.483Z,88.30
2018-03-31T06:28:00.622Z,85.70
2018-03-31T06:30:26.745Z,86.50
2018-03-31T06:32:52.961Z,84.90
2018-03-31T06:35:19.183Z,85.30
2018-03-31T06:37:45.332Z,85.50
2018-03-31T06:40:11.538Z,83.50
2018-03-31T06:42:37.687Z,82.00
2018-03-31T06:45:03.949Z,83.40
2018-03-31T06:47:30.099Z,81.20
2018-03-31T06:49:56.345Z,81.00
2018-03-31T06:52:22.505Z,81.60
2018-03-31T06:54:48.709Z,82.60
2018-03-31T06:57:14.879Z,81.30
2018-03-31T06:59:41.003Z,77.80
2018-03-31T07:02:07.101Z,76.60
2018-03-31T07:04:33.233Z,79.00
2018-03-31T07:07:00.077Z,79.90
2018-03-31T07:09:26.209Z,79.90
2018-03-31T07:11:52.581Z,80.70
2018-03-31T07:14:19.703Z,77.70
2018-03-31T07:16:45.890Z,75.60
2018-03-31T07:19:12.090Z,77.80
2018-03-31T07:21:38.273Z,77.70
2018-03-31T07:24:04.408Z,77.90
2018-03-31T07:26:30.514Z,78.20
2018-03-31T07:28:56.697Z,78.90
2018-03-31T07:31:22.885Z,78.00
2018-03-31T07:33:49.058Z,77.70
2018-03-31T07:36:15.228Z,77.80
2018-03-31T07:38:41.337Z,77.70
2018-03-31T07:41:08.182Z,76.20
2018-03-31T07:43:34.371Z,76.20
2018-03-31T07:46:00.542Z,75.70
2018-03-31T07:48:26.669Z,75.00
2018-03-31T07:50:52.816Z,74.60
2018-03-31T07:53:18.986Z,74.00
2018-03-31T07:55:45.108Z,74.00
2018-03-31T07:58:11.191Z,71.30
2018-03-31T08:00:37.429Z,72.30
2018-03-31T08:03:03.548Z,72.00
2018-03-31T08:05:29.679Z,72.50
2018-03-31T08:07:55.820Z,70.40
2018-03-31T08:10:22.739Z,72.20
2018-03-31T08:12:48.888Z,72.20
2018-03-31T08:15:16.138Z,71.60
2018-03-31T08:17:42.308Z,71.60
2018-03-31T08:20:08.458Z,70.40
2018-03-31T08:22:34.546Z,70.40
2018-03-31T08:25:00.762Z,68.80
2018-03-31T08:27:26.917Z,66.60
2018-03-31T08:29:53.058Z,67.10
2018-03-31T08:32:19.201Z,65.30
2018-03-31T08:34:45.378Z,64.80
2018-03-31T08:37:11.503Z,66.40
2018-03-31T08:39:37.650Z,65.70
2018-03-31T08:42:03.823Z,65.20
2018-03-31T08:44:30.012Z,64.50
2018-03-31T08:46:57.038Z,64.50
2018-03-31T08:49:23.192Z,62.50
2018-03-31T08:51:49.516Z,63.30
2018-03-31T08:54:15.676Z,63.00
2018-03-31T08:56:41.800Z,60.70
2018-03-31T08:59:07.965Z,61.00
2018-03-31T09:01:34.101Z,60.90
2018-03-31T09:04:00.330Z,61.10
2018-03-31T09:06:26.517Z,58.50
2018-03-31T09:08:53.405Z,60.80
2018-03-31T09:11:19.597Z,60.80
2018-03-31T09:13:45.764Z,62.00
2018-03-31T09:16:12.442Z,60.50
2018-03-31T09:18:39.287Z,59.80
2018-03-31T09:21:05.777Z,59.60
2018-03-31T09:23:31.898Z,58.90
2018-03-31T09:25:58.213Z,58.20
2018-03-31T09:28:24.388Z,59.70
2018-03-31T09:30:50.627Z,59.20
2018-03-31T09:33:16.759Z,59.60
2018-03-31T09:35:43.049Z,56.90
2018-03-31T09:38:09.207Z,57.90
2018-03-31T09:40:35.328Z,57.00
2018-03-31T09:43:02.189Z,58.60
2018-03-31T09:45:28.294Z,58.60
2018-03-31T09:47:55.165Z,58.40
2018-03-31T09:50:21.297Z,58.40
2018-03-31T09:52:47.412Z,53.00
2018-03-31T09:55:13.538Z,52.90
2018-03-31T09:57:40.429Z,54.90
2018-03-31T10:00:06.570Z,54.90
2018-03-31T10:02:32.915Z,52.20
2018-03-31T10:04:59.101Z,47.80
2018-03-31T10:07:25.238Z,51.10
2018-03-31T10:09:51.355Z,52.20
2018-03-31T10:12:17.503Z,49.60
2018-03-31T10:14:44.451Z,50.60
